sensor_id;sensor_type;location;lat;lon;timestamp;pressure;altitude;pressure_sealevel;temperature;humidity
9249;BME280;4660;41.768;26.198;2022-08-19T00:00:21;100305.19;;;27.09;97.82
9249;BME280;4660;41.768;26.198;2022-08-19T00:02:47;100302.03;;;27.01;98.16
9249;BME280;4660;41.768;26.198;2022-08-19T00:05:13;100301.78;;;27.02;98.46
9249;BME280;4660;41.768;26.198;2022-08-19T00:07:41;100294.16;;;26.87;100.00
9249;BME280;4660;41.768;26.198;2022-08-19T00:10:09;100312.88;;;26.85;100.00
9249;BME280;4660;41.768;26.198;2022-08-19T00:12:35;100301.47;;;26.77;100.00
9249;BME280;4660;41.768;26.198;2022-08-19T00:15:01;100306.28;;;26.65;100.00
9249;BME280;4660;41.768;26.198;2022-08-19T00:17:26;100290.38;;;26.50;100.00
9249;BME280;4660;41.768;26.198;2022-08-19T00:19:52;100301.94;;;26.47;100.00
9249;BME280;4660;41.768;26.198;2022-08-19T00:22:18;100311.31;;;26.46;100.00
9249;BME280;4660;41.768;26.198;2022-08-19T00:24:45;100298.44;;;26.34;100.00
9249;BME280;4660;41.768;26.198;2022-08-19T00:27:11;100291.19;;;26.28;100.00
9249;BME280;4660;41.768;26.198;2022-08-19T00:29:37;100291.44;;;26.27;100.00
9249;BME280;4660;41.768;26.198;2022-08-19T00:32:03;100298.03;;;26.26;100.00
9249;BME280;4660;41.768;26.198;2022-08-19T00:34:29;100297.91;;;26.16;100.00
9249;BME280;4660;41.768;26.198;2022-08-19T00:36:56;100300.50;;;26.05;100.00
9249;BME280;4660;41.768;26.198;2022-08-19T00:39:22;100293.47;;;26.15;100.00
9249;BME280;4660;41.768;26.198;2022-08-19T00:41:49;100296.34;;;26.42;100.00
9249;BME280;4660;41.768;26.198;2022-08-19T00:44:24;100300.84;;;26.48;100.00
9249;BME280;4660;41.768;26.198;2022-08-19T00:46:51;100300.06;;;26.30;100.00
9249;BME280;4660;41.768;26.198;2022-08-19T00:49:56;100308.50;;;26.24;100.00
9249;BME280;4660;41.768;26.198;2022-08-19T00:52:30;100310.09;;;26.20;100.00
9249;BME280;4660;41.768;26.198;2022-08-19T00:54:58;100317.06;;;26.05;100.00
9249;BME280;4660;41.768;26.198;2022-08-19T00:57:29;100315.06;;;26.01;100.00
9249;BME280;4660;41.768;26.198;2022-08-19T00:59:58;100314.72;;;25.97;100.00
9249;BME280;4660;41.768;26.198;2022-08-19T01:02:25;100309.22;;;25.97;100.00
9249;BME280;4660;41.768;26.198;2022-08-19T01:04:51;100301.38;;;25.89;100.00
9249;BME280;4660;41.768;26.198;2022-08-19T01:07:17;100302.88;;;25.97;100.00
9249;BME280;4660;41.768;26.198;2022-08-19T01:09:43;100311.50;;;26.00;100.00
9249;BME280;4660;41.768;26.198;2022-08-19T01:12:09;100307.13;;;26.04;100.00
9249;BME280;4660;41.768;26.198;2022-08-19T01:14:37;100308.13;;;25.98;100.00
9249;BME280;4660;41.768;26.198;2022-08-19T01:17:05;100303.06;;;25.90;100.00
9249;BME280;4660;41.768;26.198;2022-08-19T01:19:36;100294.69;;;25.85;100.00
9249;BME280;4660;41.768;26.198;2022-08-19T01:24:38;100290.00;;;25.69;100.00
9249;BME280;4660;41.768;26.198;2022-08-19T01:27:05;100299.31;;;25.79;100.00
9249;BME280;4660;41.768;26.198;2022-08-19T01:29:31;100300.72;;;25.82;100.00
9249;BME280;4660;41.768;26.198;2022-08-19T01:31:57;100303.38;;;25.77;100.00
9249;BME280;4660;41.768;26.198;2022-08-19T01:34:26;100292.38;;;25.77;100.00
9249;BME280;4660;41.768;26.198;2022-08-19T01:36:51;100302.91;;;25.80;100.00
9249;BME280;4660;41.768;26.198;2022-08-19T01:39:22;100313.16;;;25.85;100.00
9249;BME280;4660;41.768;26.198;2022-08-19T01:41:48;100305.19;;;26.05;100.00
9249;BME280;4660;41.768;26.198;2022-08-19T01:44:14;100303.88;;;25.91;100.00
9249;BME280;4660;41.768;26.198;2022-08-19T01:46:41;100306.88;;;25.56;100.00
9249;BME280;4660;41.768;26.198;2022-08-19T01:49:08;100309.03;;;25.53;100.00
9249;BME280;4660;41.768;26.198;2022-08-19T01:51:34;100306.03;;;25.55;100.00
9249;BME280;4660;41.768;26.198;2022-08-19T01:53:59;100310.66;;;25.83;100.00
9249;BME280;4660;41.768;26.198;2022-08-19T01:56:25;100305.88;;;25.95;100.00
9249;BME280;4660;41.768;26.198;2022-08-19T01:58:57;100315.75;;;25.91;100.00
9249;BME280;4660;41.768;26.198;2022-08-19T02:01:24;100318.53;;;26.13;100.00
9249;BME280;4660;41.768;26.198;2022-08-19T02:03:49;100317.00;;;26.00;100.00
9249;BME280;4660;41.768;26.198;2022-08-19T02:06:18;100294.69;;;25.85;100.00
9249;BME280;4660;41.768;26.198;2022-08-19T02:08:44;100303.56;;;25.87;100.00
9249;BME280;4660;41.768;26.198;2022-08-19T02:11:20;100311.88;;;26.09;100.00
9249;BME280;4660;41.768;26.198;2022-08-19T02:13:46;100319.16;;;26.15;99.94
9249;BME280;4660;41.768;26.198;2022-08-19T02:16:11;100311.84;;;26.26;99.23
9249;BME280;4660;41.768;26.198;2022-08-19T02:18:37;100308.72;;;25.84;100.00
9249;BME280;4660;41.768;26.198;2022-08-19T02:21:03;100307.06;;;25.83;99.66
9249;BME280;4660;41.768;26.198;2022-08-19T02:23:28;100310.88;;;25.48;100.00
9249;BME280;4660;41.768;26.198;2022-08-19T02:25:54;100302.50;;;25.09;100.00
9249;BME280;4660;41.768;26.198;2022-08-19T02:28:19;100305.28;;;24.86;100.00
9249;BME280;4660;41.768;26.198;2022-08-19T02:30:46;100311.25;;;24.66;100.00
9249;BME280;4660;41.768;26.198;2022-08-19T02:33:12;100314.16;;;24.48;100.00
9249;BME280;4660;41.768;26.198;2022-08-19T02:35:44;100310.50;;;24.70;100.00
9249;BME280;4660;41.768;26.198;2022-08-19T02:38:10;100295.56;;;24.66;100.00
9249;BME280;4660;41.768;26.198;2022-08-19T02:40:56;100316.50;;;24.67;100.00
9249;BME280;4660;41.768;26.198;2022-08-19T02:43:23;100301.75;;;24.45;100.00
9249;BME280;4660;41.768;26.198;2022-08-19T02:45:50;100311.06;;;24.44;100.00
9249;BME280;4660;41.768;26.198;2022-08-19T02:48:18;100318.25;;;24.33;100.00
9249;BME280;4660;41.768;26.198;2022-08-19T02:50:45;100316.34;;;24.22;100.00
9249;BME280;4660;41.768;26.198;2022-08-19T02:53:11;100315.84;;;24.13;100.00
9249;BME280;4660;41.768;26.198;2022-08-19T02:55:43;100323.16;;;24.08;100.00
9249;BME280;4660;41.768;26.198;2022-08-19T02:58:09;100321.47;;;24.07;100.00
9249;BME280;4660;41.768;26.198;2022-08-19T03:00:34;100324.22;;;23.95;100.00
9249;BME280;4660;41.768;26.198;2022-08-19T03:03:00;100331.53;;;24.01;100.00
9249;BME280;4660;41.768;26.198;2022-08-19T03:05:26;100325.03;;;24.07;100.00
9249;BME280;4660;41.768;26.198;2022-08-19T03:07:53;100343.91;;;24.27;100.00
9249;BME280;4660;41.768;26.198;2022-08-19T03:10:18;100335.31;;;24.12;100.00
9249;BME280;4660;41.768;26.198;2022-08-19T03:12:44;100345.38;;;23.95;100.00
9249;BME280;4660;41.768;26.198;2022-08-19T03:15:11;100348.72;;;23.97;100.00
9249;BME280;4660;41.768;26.198;2022-08-19T03:17:37;100357.88;;;23.79;100.00
9249;BME280;4660;41.768;26.198;2022-08-19T03:20:03;100357.28;;;23.65;100.00
9249;BME280;4660;41.768;26.198;2022-08-19T03:22:29;100358.25;;;23.41;100.00
9249;BME280;4660;41.768;26.198;2022-08-19T03:24:55;100361.19;;;23.27;100.00
9249;BME280;4660;41.768;26.198;2022-08-19T03:27:21;100359.88;;;23.18;100.00
9249;BME280;4660;41.768;26.198;2022-08-19T03:29:47;100367.06;;;22.83;100.00
9249;BME280;4660;41.768;26.198;2022-08-19T03:32:13;100372.88;;;22.74;100.00
9249;BME280;4660;41.768;26.198;2022-08-19T03:34:38;100369.44;;;22.79;100.00
9249;BME280;4660;41.768;26.198;2022-08-19T03:37:10;100371.47;;;22.84;100.00
9249;BME280;4660;41.768;26.198;2022-08-19T03:39:39;100374.44;;;22.82;100.00
9249;BME280;4660;41.768;26.198;2022-08-19T03:42:05;100381.41;;;23.03;100.00
9249;BME280;4660;41.768;26.198;2022-08-19T03:44:32;100384.00;;;22.98;100.00
9249;BME280;4660;41.768;26.198;2022-08-19T03:46:59;100386.38;;;22.94;100.00
9249;BME280;4660;41.768;26.198;2022-08-19T03:49:28;100372.75;;;22.88;100.00
9249;BME280;4660;41.768;26.198;2022-08-19T03:51:55;100349.97;;;22.87;100.00
9249;BME280;4660;41.768;26.198;2022-08-19T03:54:23;100382.78;;;22.94;100.00
9249;BME280;4660;41.768;26.198;2022-08-19T03:56:52;100378.63;;;22.85;100.00
9249;BME280;4660;41.768;26.198;2022-08-19T03:59:23;100386.88;;;23.03;100.00
9249;BME280;4660;41.768;26.198;2022-08-19T04:01:55;100388.72;;;22.91;100.00
9249;BME280;4660;41.768;26.198;2022-08-19T04:04:22;100380.25;;;22.92;100.00
9249;BME280;4660;41.768;26.198;2022-08-19T04:06:48;100394.03;;;23.04;100.00
9249;BME280;4660;41.768;26.198;2022-08-19T04:09:14;100398.31;;;23.00;100.00
9249;BME280;4660;41.768;26.198;2022-08-19T04:11:43;100394.97;;;22.98;100.00
9249;BME280;4660;41.768;26.198;2022-08-19T04:14:15;100381.56;;;22.90;100.00
9249;BME280;4660;41.768;26.198;2022-08-19T04:16:43;100397.06;;;22.77;100.00
9249;BME280;4660;41.768;26.198;2022-08-19T04:19:10;100391.66;;;22.71;100.00
9249;BME280;4660;41.768;26.198;2022-08-19T04:21:36;100401.28;;;22.80;100.00
9249;BME280;4660;41.768;26.198;2022-08-19T04:24:02;100402.56;;;22.77;100.00
9249;BME280;4660;41.768;26.198;2022-08-19T04:26:32;100396.88;;;22.79;100.00
9249;BME280;4660;41.768;26.198;2022-08-19T04:28:59;100403.03;;;22.93;100.00
9249;BME280;4660;41.768;26.198;2022-08-19T04:31:28;100391.50;;;22.84;100.00
9249;BME280;4660;41.768;26.198;2022-08-19T04:33:56;100403.78;;;23.00;100.00
9249;BME280;4660;41.768;26.198;2022-08-19T04:36:28;100399.28;;;23.24;100.00
9249;BME280;4660;41.768;26.198;2022-08-19T04:38:58;100399.44;;;23.41;100.00
9249;BME280;4660;41.768;26.198;2022-08-19T04:41:25;100406.59;;;23.72;100.00
9249;BME280;4660;41.768;26.198;2022-08-19T04:44:10;100406.81;;;23.58;100.00
9249;BME280;4660;41.768;26.198;2022-08-19T04:46:37;100401.31;;;23.58;100.00
9249;BME280;4660;41.768;26.198;2022-08-19T04:49:03;100396.78;;;23.34;100.00
9249;BME280;4660;41.768;26.198;2022-08-19T04:51:31;100401.25;;;23.47;100.00
9249;BME280;4660;41.768;26.198;2022-08-19T04:53:57;100396.94;;;23.39;100.00
9249;BME280;4660;41.768;26.198;2022-08-19T04:56:25;100405.81;;;23.53;100.00
9249;BME280;4660;41.768;26.198;2022-08-19T04:58:53;100395.53;;;23.48;100.00
9249;BME280;4660;41.768;26.198;2022-08-19T05:01:22;100405.22;;;23.81;100.00
9249;BME280;4660;41.768;26.198;2022-08-19T05:03:49;100405.69;;;23.89;100.00
9249;BME280;4660;41.768;26.198;2022-08-19T05:06:17;100399.50;;;24.06;100.00
9249;BME280;4660;41.768;26.198;2022-08-19T05:08:44;100416.22;;;24.04;100.00
9249;BME280;4660;41.768;26.198;2022-08-19T05:13:40;100420.06;;;24.03;100.00
9249;BME280;4660;41.768;26.198;2022-08-19T05:16:06;100404.03;;;24.12;100.00
9249;BME280;4660;41.768;26.198;2022-08-19T05:18:32;100422.47;;;24.35;100.00
9249;BME280;4660;41.768;26.198;2022-08-19T05:21:18;100430.38;;;24.66;100.00
9249;BME280;4660;41.768;26.198;2022-08-19T05:24:04;100430.72;;;24.82;100.00
9249;BME280;4660;41.768;26.198;2022-08-19T05:26:38;100424.63;;;24.80;100.00
9249;BME280;4660;41.768;26.198;2022-08-19T05:29:05;100424.63;;;24.80;100.00
9249;BME280;4660;41.768;26.198;2022-08-19T05:31:31;100433.66;;;24.92;100.00
9249;BME280;4660;41.768;26.198;2022-08-19T05:33:57;100431.41;;;25.01;100.00
9249;BME280;4660;41.768;26.198;2022-08-19T05:36:25;100439.31;;;25.09;100.00
9249;BME280;4660;41.768;26.198;2022-08-19T05:38:51;100443.78;;;25.27;100.00
9249;BME280;4660;41.768;26.198;2022-08-19T05:41:19;100442.38;;;25.24;100.00
9249;BME280;4660;41.768;26.198;2022-08-19T05:43:46;100431.97;;;25.14;100.00
9249;BME280;4660;41.768;26.198;2022-08-19T05:46:19;100427.00;;;25.28;100.00
9249;BME280;4660;41.768;26.198;2022-08-19T05:48:45;100432.13;;;25.65;100.00
9249;BME280;4660;41.768;26.198;2022-08-19T05:51:11;100428.25;;;25.77;100.00
9249;BME280;4660;41.768;26.198;2022-08-19T05:53:37;100434.19;;;25.86;100.00
9249;BME280;4660;41.768;26.198;2022-08-19T05:56:09;100428.75;;;25.91;100.00
9249;BME280;4660;41.768;26.198;2022-08-19T06:04:07;100427.34;;;26.22;100.00
9249;BME280;4660;41.768;26.198;2022-08-19T06:06:34;100429.91;;;26.29;100.00
9249;BME280;4660;41.768;26.198;2022-08-19T06:09:04;100443.66;;;26.41;100.00
9249;BME280;4660;41.768;26.198;2022-08-19T06:11:52;100443.06;;;26.39;100.00
9249;BME280;4660;41.768;26.198;2022-08-19T06:14:22;100444.56;;;26.46;99.51
9249;BME280;4660;41.768;26.198;2022-08-19T06:16:49;100441.72;;;26.58;97.05
9249;BME280;4660;41.768;26.198;2022-08-19T06:21:52;100440.19;;;26.67;98.35
9249;BME280;4660;41.768;26.198;2022-08-19T06:24:21;100433.47;;;26.80;97.45
9249;BME280;4660;41.768;26.198;2022-08-19T06:26:51;100436.09;;;26.92;95.57
9249;BME280;4660;41.768;26.198;2022-08-19T06:29:19;100443.09;;;26.99;96.04
9249;BME280;4660;41.768;26.198;2022-08-19T06:31:47;100434.72;;;27.11;96.23
9249;BME280;4660;41.768;26.198;2022-08-19T06:34:15;100422.38;;;27.19;94.16
9249;BME280;4660;41.768;26.198;2022-08-19T06:36:44;100422.94;;;27.21;93.51
9249;BME280;4660;41.768;26.198;2022-08-19T06:39:13;100425.94;;;27.41;93.39
9249;BME280;4660;41.768;26.198;2022-08-19T06:41:44;100411.41;;;27.78;91.25
9249;BME280;4660;41.768;26.198;2022-08-19T06:44:10;100427.06;;;27.94;90.05
9249;BME280;4660;41.768;26.198;2022-08-19T06:46:38;100428.50;;;28.34;88.39
9249;BME280;4660;41.768;26.198;2022-08-19T06:49:04;100422.88;;;28.29;88.17
9249;BME280;4660;41.768;26.198;2022-08-19T06:51:30;100425.09;;;28.27;88.42
9249;BME280;4660;41.768;26.198;2022-08-19T06:53:57;100425.69;;;28.71;85.27
9249;BME280;4660;41.768;26.198;2022-08-19T06:56:26;100429.06;;;28.83;83.36
9249;BME280;4660;41.768;26.198;2022-08-19T07:01:26;100423.50;;;29.30;80.75
9249;BME280;4660;41.768;26.198;2022-08-19T07:03:52;100418.47;;;29.22;80.53
9249;BME280;4660;41.768;26.198;2022-08-19T07:06:18;100419.59;;;29.26;81.35
9249;BME280;4660;41.768;26.198;2022-08-19T07:08:46;100408.47;;;29.11;82.13
9249;BME280;4660;41.768;26.198;2022-08-19T07:11:15;100411.28;;;29.26;82.74
9249;BME280;4660;41.768;26.198;2022-08-19T07:13:42;100380.25;;;29.24;79.89
9249;BME280;4660;41.768;26.198;2022-08-19T07:16:12;100413.06;;;29.58;81.41
9249;BME280;4660;41.768;26.198;2022-08-19T07:18:38;100407.22;;;29.59;81.16
9249;BME280;4660;41.768;26.198;2022-08-19T07:21:11;100402.53;;;29.65;80.07
9249;BME280;4660;41.768;26.198;2022-08-19T07:23:43;100411.09;;;29.79;80.49
9249;BME280;4660;41.768;26.198;2022-08-19T07:26:26;100384.25;;;29.79;79.20
9249;BME280;4660;41.768;26.198;2022-08-19T07:29:10;100414.19;;;29.98;76.03
9249;BME280;4660;41.768;26.198;2022-08-19T07:31:36;100419.75;;;30.23;75.52
9249;BME280;4660;41.768;26.198;2022-08-19T07:34:06;100413.59;;;30.41;74.96
9249;BME280;4660;41.768;26.198;2022-08-19T07:36:34;100415.25;;;30.58;73.79
9249;BME280;4660;41.768;26.198;2022-08-19T07:39:05;100421.63;;;30.68;72.25
9249;BME280;4660;41.768;26.198;2022-08-19T07:41:31;100407.69;;;30.84;70.65
9249;BME280;4660;41.768;26.198;2022-08-19T07:44:00;100419.00;;;31.08;68.63
9249;BME280;4660;41.768;26.198;2022-08-19T07:46:33;100417.31;;;31.07;69.62
9249;BME280;4660;41.768;26.198;2022-08-19T07:48:59;100414.53;;;31.12;68.65
9249;BME280;4660;41.768;26.198;2022-08-19T07:51:26;100414.22;;;31.23;68.06
9249;BME280;4660;41.768;26.198;2022-08-19T07:53:52;100417.53;;;31.26;67.17
9249;BME280;4660;41.768;26.198;2022-08-19T07:56:20;100417.81;;;31.29;67.04
9249;BME280;4660;41.768;26.198;2022-08-19T07:58:48;100419.44;;;31.35;66.36
9249;BME280;4660;41.768;26.198;2022-08-19T08:01:18;100414.13;;;31.44;66.69
9249;BME280;4660;41.768;26.198;2022-08-19T08:03:47;100414.13;;;31.39;65.35
9249;BME280;4660;41.768;26.198;2022-08-19T08:06:31;100400.09;;;31.59;63.77
9249;BME280;4660;41.768;26.198;2022-08-19T08:09:19;100405.41;;;31.56;63.61
9249;BME280;4660;41.768;26.198;2022-08-19T08:14:43;100399.63;;;31.86;62.19
9249;BME280;4660;41.768;26.198;2022-08-19T08:17:09;100404.09;;;31.87;62.78
9249;BME280;4660;41.768;26.198;2022-08-19T08:19:35;100396.47;;;31.98;64.08
9249;BME280;4660;41.768;26.198;2022-08-19T08:22:02;100401.91;;;32.13;61.89
9249;BME280;4660;41.768;26.198;2022-08-19T08:24:30;100404.88;;;32.22;61.37
9249;BME280;4660;41.768;26.198;2022-08-19T08:27:00;100402.16;;;32.17;60.19
9249;BME280;4660;41.768;26.198;2022-08-19T08:29:46;100406.56;;;32.23;61.82
9249;BME280;4660;41.768;26.198;2022-08-19T08:32:14;100399.75;;;32.39;58.75
9249;BME280;4660;41.768;26.198;2022-08-19T08:34:41;100403.59;;;32.43;54.33
9249;BME280;4660;41.768;26.198;2022-08-19T08:37:07;100396.47;;;32.56;52.88
9249;BME280;4660;41.768;26.198;2022-08-19T08:39:32;100391.88;;;32.70;52.14
9249;BME280;4660;41.768;26.198;2022-08-19T08:42:07;100394.81;;;32.79;53.58
9249;BME280;4660;41.768;26.198;2022-08-19T08:44:56;100391.28;;;32.97;51.77
9249;BME280;4660;41.768;26.198;2022-08-19T08:47:25;100393.41;;;33.05;51.93
9249;BME280;4660;41.768;26.198;2022-08-19T08:49:59;100389.03;;;32.99;54.11
9249;BME280;4660;41.768;26.198;2022-08-19T08:52:47;100384.06;;;32.96;50.59
9249;BME280;4660;41.768;26.198;2022-08-19T08:55:20;100378.53;;;32.91;51.26
9249;BME280;4660;41.768;26.198;2022-08-19T09:00:19;100372.09;;;32.96;49.09
9249;BME280;4660;41.768;26.198;2022-08-19T09:02:47;100372.50;;;33.08;46.94
9249;BME280;4660;41.768;26.198;2022-08-19T09:05:13;100369.47;;;33.04;47.68
9249;BME280;4660;41.768;26.198;2022-08-19T09:07:50;100359.66;;;33.07;46.78
9249;BME280;4660;41.768;26.198;2022-08-19T09:10:29;100362.25;;;33.22;47.24
9249;BME280;4660;41.768;26.198;2022-08-19T09:13:12;100354.25;;;33.34;47.53
9249;BME280;4660;41.768;26.198;2022-08-19T09:15:54;100364.72;;;33.24;45.00
9249;BME280;4660;41.768;26.198;2022-08-19T09:18:22;100360.91;;;33.38;44.50
9249;BME280;4660;41.768;26.198;2022-08-19T09:20:48;100356.88;;;33.63;43.82
9249;BME280;4660;41.768;26.198;2022-08-19T09:23:13;100358.91;;;33.77;43.89
9249;BME280;4660;41.768;26.198;2022-08-19T09:25:39;100344.50;;;33.70;44.70
9249;BME280;4660;41.768;26.198;2022-08-19T09:28:06;100356.03;;;33.82;44.05
9249;BME280;4660;41.768;26.198;2022-08-19T09:30:38;100343.28;;;33.76;44.21
9249;BME280;4660;41.768;26.198;2022-08-19T09:33:05;100343.34;;;33.89;44.14
9249;BME280;4660;41.768;26.198;2022-08-19T09:35:32;100341.16;;;34.33;42.51
9249;BME280;4660;41.768;26.198;2022-08-19T09:37:59;100347.94;;;34.45;42.24
9249;BME280;4660;41.768;26.198;2022-08-19T09:40:29;100340.75;;;34.26;42.13
9249;BME280;4660;41.768;26.198;2022-08-19T09:42:56;100341.94;;;34.06;39.70
9249;BME280;4660;41.768;26.198;2022-08-19T09:45:23;100344.44;;;34.07;39.57
9249;BME280;4660;41.768;26.198;2022-08-19T09:47:51;100358.94;;;34.23;38.17
9249;BME280;4660;41.768;26.198;2022-08-19T09:50:18;100348.34;;;34.53;33.92
9249;BME280;4660;41.768;26.198;2022-08-19T09:52:44;100351.75;;;34.63;32.90
9249;BME280;4660;41.768;26.198;2022-08-19T09:55:11;100340.97;;;34.57;32.44
9249;BME280;4660;41.768;26.198;2022-08-19T09:57:37;100335.38;;;34.84;32.80
9249;BME280;4660;41.768;26.198;2022-08-19T10:00:04;100345.06;;;35.14;32.20
9249;BME280;4660;41.768;26.198;2022-08-19T10:02:30;100347.59;;;35.02;32.11
9249;BME280;4660;41.768;26.198;2022-08-19T10:04:56;100349.00;;;35.13;31.97
9249;BME280;4660;41.768;26.198;2022-08-19T10:07:40;100344.78;;;35.16;32.14
9249;BME280;4660;41.768;26.198;2022-08-19T10:10:07;100334.44;;;34.89;32.27
9249;BME280;4660;41.768;26.198;2022-08-19T10:12:35;100342.31;;;35.00;31.68
9249;BME280;4660;41.768;26.198;2022-08-19T10:15:02;100333.44;;;35.57;31.79
9249;BME280;4660;41.768;26.198;2022-08-19T10:20:04;100277.94;;;35.14;30.81
9249;BME280;4660;41.768;26.198;2022-08-19T10:22:30;100304.31;;;34.99;32.39
9249;BME280;4660;41.768;26.198;2022-08-19T10:24:56;100339.72;;;35.04;32.06
9249;BME280;4660;41.768;26.198;2022-08-19T10:27:21;100326.53;;;35.18;31.95
9249;BME280;4660;41.768;26.198;2022-08-19T10:29:47;100325.81;;;35.49;31.19
9249;BME280;4660;41.768;26.198;2022-08-19T10:32:13;100338.22;;;35.56;30.84
9249;BME280;4660;41.768;26.198;2022-08-19T10:34:39;100321.50;;;35.43;31.52
9249;BME280;4660;41.768;26.198;2022-08-19T10:37:05;100320.97;;;35.63;31.11
9249;BME280;4660;41.768;26.198;2022-08-19T10:39:33;100326.84;;;35.75;31.59
9249;BME280;4660;41.768;26.198;2022-08-19T10:42:04;100314.75;;;35.89;30.44
9249;BME280;4660;41.768;26.198;2022-08-19T10:44:32;100314.59;;;36.16;30.37
9249;BME280;4660;41.768;26.198;2022-08-19T10:46:58;100319.72;;;36.23;30.25
9249;BME280;4660;41.768;26.198;2022-08-19T10:49:24;100309.63;;;36.13;29.90
9249;BME280;4660;41.768;26.198;2022-08-19T10:51:50;100326.00;;;35.97;30.44
9249;BME280;4660;41.768;26.198;2022-08-19T10:54:34;100322.84;;;35.90;31.04
9249;BME280;4660;41.768;26.198;2022-08-19T10:57:20;100305.47;;;36.02;30.40
9249;BME280;4660;41.768;26.198;2022-08-19T10:59:49;100321.47;;;36.41;30.26
9249;BME280;4660;41.768;26.198;2022-08-19T11:02:15;100310.81;;;36.52;29.73
9249;BME280;4660;41.768;26.198;2022-08-19T11:04:41;100313.00;;;36.32;29.75
9249;BME280;4660;41.768;26.198;2022-08-19T11:07:06;100300.63;;;36.25;30.04
9249;BME280;4660;41.768;26.198;2022-08-19T11:09:37;100301.94;;;36.27;30.25
9249;BME280;4660;41.768;26.198;2022-08-19T11:12:04;100303.03;;;36.49;29.71
9249;BME280;4660;41.768;26.198;2022-08-19T11:14:30;100298.88;;;36.37;29.33
9249;BME280;4660;41.768;26.198;2022-08-19T11:16:58;100280.03;;;36.29;29.55
9249;BME280;4660;41.768;26.198;2022-08-19T11:19:24;100281.41;;;36.41;29.78
9249;BME280;4660;41.768;26.198;2022-08-19T11:21:51;100301.69;;;36.37;29.78
9249;BME280;4660;41.768;26.198;2022-08-19T11:24:21;100289.53;;;36.51;29.96
9249;BME280;4660;41.768;26.198;2022-08-19T11:26:49;100294.19;;;36.73;29.24
9249;BME280;4660;41.768;26.198;2022-08-19T11:29:15;100282.13;;;36.72;28.67
9249;BME280;4660;41.768;26.198;2022-08-19T11:31:44;100281.22;;;37.03;27.96
9249;BME280;4660;41.768;26.198;2022-08-19T11:34:14;100278.75;;;37.10;27.93
9249;BME280;4660;41.768;26.198;2022-08-19T11:36:43;100265.63;;;36.62;27.96
9249;BME280;4660;41.768;26.198;2022-08-19T11:39:12;100272.59;;;36.73;28.67
9249;BME280;4660;41.768;26.198;2022-08-19T11:41:47;100283.50;;;36.35;28.98
9249;BME280;4660;41.768;26.198;2022-08-19T11:44:14;100270.91;;;36.55;28.83
9249;BME280;4660;41.768;26.198;2022-08-19T11:46:41;100272.59;;;36.73;28.66
9249;BME280;4660;41.768;26.198;2022-08-19T11:49:08;100250.53;;;36.98;28.89
9249;BME280;4660;41.768;26.198;2022-08-19T11:51:34;100270.66;;;37.00;27.75
9249;BME280;4660;41.768;26.198;2022-08-19T11:54:00;100272.28;;;36.83;27.98
9249;BME280;4660;41.768;26.198;2022-08-19T11:56:27;100273.56;;;36.77;28.00
9249;BME280;4660;41.768;26.198;2022-08-19T11:58:54;100262.91;;;36.88;28.04
9249;BME280;4660;41.768;26.198;2022-08-19T12:01:23;100271.66;;;37.04;28.33
9249;BME280;4660;41.768;26.198;2022-08-19T12:03:51;100258.44;;;37.13;28.31
9249;BME280;4660;41.768;26.198;2022-08-19T12:08:55;100214.56;;;37.00;28.06
9249;BME280;4660;41.768;26.198;2022-08-19T12:11:22;100260.63;;;37.33;28.17
9249;BME280;4660;41.768;26.198;2022-08-19T12:13:48;100254.50;;;37.31;27.64
9249;BME280;4660;41.768;26.198;2022-08-19T12:16:21;100252.19;;;37.33;27.78
9249;BME280;4660;41.768;26.198;2022-08-19T12:18:50;100248.88;;;37.14;28.18
9249;BME280;4660;41.768;26.198;2022-08-19T12:21:22;100243.88;;;36.85;28.54
9249;BME280;4660;41.768;26.198;2022-08-19T12:23:50;100243.13;;;37.10;28.31
9249;BME280;4660;41.768;26.198;2022-08-19T12:26:16;100239.31;;;36.98;28.12
9249;BME280;4660;41.768;26.198;2022-08-19T12:28:42;100246.91;;;37.06;27.90
9249;BME280;4660;41.768;26.198;2022-08-19T12:33:43;100212.22;;;36.84;28.45
9249;BME280;4660;41.768;26.198;2022-08-19T12:36:11;100233.53;;;37.11;28.62
9249;BME280;4660;41.768;26.198;2022-08-19T12:38:38;100239.94;;;37.55;27.97
9249;BME280;4660;41.768;26.198;2022-08-19T12:41:05;100236.53;;;37.96;27.60
9249;BME280;4660;41.768;26.198;2022-08-19T12:43:36;100248.13;;;37.86;27.40
9249;BME280;4660;41.768;26.198;2022-08-19T12:46:04;100233.50;;;37.55;28.06
9249;BME280;4660;41.768;26.198;2022-08-19T12:48:31;100236.81;;;37.13;28.28
9249;BME280;4660;41.768;26.198;2022-08-19T12:50:57;100235.47;;;36.68;28.94
9249;BME280;4660;41.768;26.198;2022-08-19T12:53:23;100229.03;;;36.84;28.51
9249;BME280;4660;41.768;26.198;2022-08-19T12:55:57;100237.84;;;37.09;28.28
9249;BME280;4660;41.768;26.198;2022-08-19T12:58:23;100211.59;;;37.13;28.28
9249;BME280;4660;41.768;26.198;2022-08-19T13:00:49;100229.22;;;37.49;28.20
9249;BME280;4660;41.768;26.198;2022-08-19T13:03:14;100220.16;;;37.52;27.84
9249;BME280;4660;41.768;26.198;2022-08-19T13:05:44;100224.34;;;37.84;27.29
9249;BME280;4660;41.768;26.198;2022-08-19T13:08:13;100209.91;;;38.03;26.87
9249;BME280;4660;41.768;26.198;2022-08-19T13:10:39;100225.72;;;38.16;26.92
9249;BME280;4660;41.768;26.198;2022-08-19T13:13:07;100228.03;;;38.43;26.51
9249;BME280;4660;41.768;26.198;2022-08-19T13:15:35;100230.56;;;38.36;26.34
9249;BME280;4660;41.768;26.198;2022-08-19T13:18:01;100221.19;;;38.32;26.85
9249;BME280;4660;41.768;26.198;2022-08-19T13:20:27;100230.00;;;38.13;26.74
9249;BME280;4660;41.768;26.198;2022-08-19T13:22:54;100209.41;;;38.00;27.17
9249;BME280;4660;41.768;26.198;2022-08-19T13:25:20;100212.47;;;38.25;26.32
9249;BME280;4660;41.768;26.198;2022-08-19T13:27:47;100213.66;;;38.15;26.28
9249;BME280;4660;41.768;26.198;2022-08-19T13:30:16;100217.75;;;38.18;26.48